createdAt,value
2019-01-25T00:02:55.239Z,41.27
2019-01-25T00:07:57.769Z,40.37
2019-01-25T00:13:00.354Z,40.63
2019-01-25T00:18:04.022Z,41.27
2019-01-25T00:23:06.543Z,41.97
2019-01-25T00:28:09.081Z,41.07
2019-01-25T00:33:11.791Z,40.67
2019-01-25T00:38:14.245Z,41.00
2019-01-25T00:43:16.781Z,41.93
2019-01-25T00:48:19.329Z,41.80
2019-01-25T00:53:21.913Z,39.63
2019-01-25T00:58:24.452Z,41.27
2019-01-25T01:03:26.998Z,40.97
2019-01-25T01:08:29.574Z,38.97
2019-01-25T01:13:34.855Z,41.27
2019-01-25T01:18:37.401Z,40.73
2019-01-25T01:23:39.922Z,40.73
2019-01-25T01:28:42.461Z,41.50
2019-01-25T01:33:44.985Z,41.20
2019-01-25T01:38:47.556Z,43.73
2019-01-25T01:43:50.122Z,41.80
2019-01-25T01:48:53.065Z,40.57
2019-01-25T01:53:55.596Z,41.37
2019-01-25T01:58:58.140Z,42.67
2019-01-25T02:04:00.694Z,39.80
2019-01-25T02:09:06.220Z,40.80
2019-01-25T02:14:08.749Z,42.87
2019-01-25T02:19:11.292Z,40.43
2019-01-25T02:24:13.812Z,40.90
2019-01-25T02:29:16.352Z,42.63
2019-01-25T02:34:18.887Z,41.27
2019-01-25T02:39:21.408Z,42.93
2019-01-25T02:44:25.144Z,41.60
2019-01-25T02:49:27.684Z,40.80
2019-01-25T02:54:30.211Z,41.30
2019-01-25T02:59:32.741Z,39.70
2019-01-25T03:04:35.269Z,41.10
2019-01-25T03:09:37.834Z,41.93
2019-01-25T03:14:40.385Z,40.77
2019-01-25T03:19:42.920Z,38.93
2019-01-25T03:24:45.454Z,40.47
2019-01-25T03:29:47.995Z,40.70
2019-01-25T03:34:50.584Z,41.50
2019-01-25T03:39:53.117Z,40.03
2019-01-25T03:44:55.662Z,41.27
2019-01-25T03:49:58.198Z,40.53
2019-01-25T03:55:00.791Z,39.63
2019-01-25T04:00:05.714Z,36.57
2019-01-25T04:05:09.493Z,39.70
2019-01-25T04:10:14.660Z,39.53
2019-01-25T04:15:20.948Z,40.73
2019-01-25T04:20:43.037Z,39.90
2019-01-25T04:25:45.564Z,39.33
2019-01-25T04:30:48.109Z,39.17
2019-01-25T04:35:51.259Z,38.80
2019-01-25T04:40:53.801Z,39.17
2019-01-25T04:45:56.312Z,39.50
2019-01-25T04:56:19.333Z,40.77
2019-01-25T05:01:24.377Z,40.20
2019-01-25T05:06:29.472Z,39.37
2019-01-25T05:11:34.521Z,40.33
2019-01-25T05:16:39.537Z,40.13
2019-01-25T05:21:44.571Z,39.67
2019-01-25T05:26:51.098Z,39.80
2019-01-25T05:31:56.124Z,41.07
2019-01-25T05:37:01.163Z,38.97
2019-01-25T05:42:06.491Z,40.37
2019-01-25T05:47:12.444Z,42.90
2019-01-25T05:52:19.749Z,41.33
2019-01-25T05:57:24.833Z,40.77
2019-01-25T06:02:30.112Z,42.40
2019-01-25T06:07:35.209Z,40.43
2019-01-25T06:12:40.218Z,39.90
2019-01-25T06:17:45.257Z,40.57
2019-01-25T06:22:54.952Z,40.67
2019-01-25T06:27:59.977Z,40.23
2019-01-25T06:33:05.293Z,44.00
2019-01-25T06:38:10.345Z,43.17
2019-01-25T06:43:17.148Z,43.73
2019-01-25T06:48:22.377Z,43.17
2019-01-25T06:53:27.420Z,42.60
2019-01-25T06:58:46.865Z,41.13
2019-01-25T07:03:51.892Z,43.53
2019-01-25T07:08:56.957Z,41.50
2019-01-25T07:14:02.023Z,41.07
2019-01-25T07:19:07.086Z,40.77
2019-01-25T07:24:12.126Z,42.07
2019-01-25T07:29:17.129Z,41.50
2019-01-25T07:34:22.155Z,41.20
2019-01-25T07:39:29.908Z,48.87
2019-01-25T07:44:35.476Z,43.17
2019-01-25T07:49:40.496Z,45.43
2019-01-25T07:54:45.547Z,40.27
2019-01-25T07:59:50.544Z,42.17
2019-01-25T08:04:55.692Z,44.70
2019-01-25T08:10:01.077Z,44.13
2019-01-25T08:15:08.552Z,43.53
2019-01-25T08:20:13.888Z,41.73
2019-01-25T08:25:19.353Z,42.33
2019-01-25T08:30:24.581Z,43.57
2019-01-25T08:35:29.628Z,43.63
2019-01-25T08:40:35.391Z,44.17
2019-01-25T08:45:40.416Z,44.03
2019-01-25T08:50:45.702Z,43.83
2019-01-25T08:55:50.713Z,47.77
2019-01-25T09:00:55.774Z,43.50
2019-01-25T09:06:00.817Z,46.33
2019-01-25T09:11:06.090Z,46.77
2019-01-25T09:16:13.252Z,48.87
2019-01-25T09:21:18.251Z,49.10
2019-01-25T09:26:23.272Z,46.90
2019-01-25T09:31:28.306Z,48.27
2019-01-25T09:36:33.332Z,49.30
2019-01-25T09:41:39.538Z,53.53
2019-01-25T09:46:45.063Z,50.00
2019-01-25T09:51:50.138Z,48.73
2019-01-25T09:56:55.534Z,51.03
2019-01-25T10:02:00.577Z,49.83
2019-01-25T10:07:05.601Z,47.40
2019-01-25T10:12:10.676Z,50.13
2019-01-25T10:17:15.706Z,49.27
2019-01-25T10:22:20.733Z,51.57
2019-01-25T10:27:25.777Z,50.37
2019-01-25T10:32:30.842Z,47.77
2019-01-25T10:37:35.881Z,48.47
2019-01-25T10:42:45.449Z,45.77
2019-01-25T10:47:47.560Z,48.03
2019-01-25T10:52:52.602Z,48.53
2019-01-25T10:57:57.924Z,50.23
2019-01-25T11:03:03.267Z,49.87
2019-01-25T11:08:08.343Z,52.37
2019-01-25T11:13:13.360Z,48.10
2019-01-25T11:18:18.395Z,51.03
2019-01-25T11:23:23.400Z,51.60
2019-01-25T11:28:28.680Z,48.73
2019-01-25T11:33:33.694Z,51.00
2019-01-25T11:38:38.788Z,52.43
2019-01-25T11:43:43.817Z,52.00
2019-01-25T11:48:48.852Z,50.80
2019-01-25T11:53:53.904Z,50.27
2019-01-25T11:58:58.913Z,51.80
2019-01-25T12:04:04.240Z,53.27
2019-01-25T12:09:10.382Z,51.67
2019-01-25T12:14:15.421Z,50.93
2019-01-25T12:19:20.445Z,50.53
2019-01-25T12:24:26.415Z,50.80
2019-01-25T12:29:31.779Z,55.07
2019-01-25T12:34:37.074Z,52.00
2019-01-25T12:39:42.091Z,50.07
2019-01-25T12:44:47.134Z,50.63
2019-01-25T12:49:52.186Z,55.87
2019-01-25T12:54:57.231Z,50.63
2019-01-25T13:00:02.323Z,52.73
2019-01-25T13:05:09.298Z,48.93
2019-01-25T13:10:15.861Z,51.60
2019-01-25T13:15:21.125Z,53.23
2019-01-25T13:20:27.248Z,53.43
2019-01-25T13:25:32.301Z,50.57
2019-01-25T13:30:37.414Z,53.87
2019-01-25T13:35:42.465Z,50.47
2019-01-25T13:40:47.506Z,48.50
2019-01-25T13:45:52.610Z,50.07
2019-01-25T13:50:57.853Z,48.17
2019-01-25T13:56:02.878Z,46.20
2019-01-25T14:01:07.932Z,48.00
2019-01-25T14:06:12.961Z,46.63
2019-01-25T14:11:18.035Z,47.67
2019-01-25T14:16:23.096Z,43.03
2019-01-25T14:21:28.192Z,42.00
2019-01-25T14:26:34.123Z,44.10
2019-01-25T14:31:39.526Z,42.20
2019-01-25T14:36:44.562Z,42.80
2019-01-25T14:41:49.609Z,42.73
2019-01-25T14:46:54.625Z,40.87
2019-01-25T14:51:59.633Z,39.37
2019-01-25T14:57:04.970Z,41.30
2019-01-25T15:02:10.152Z,40.77
2019-01-25T15:07:16.641Z,42.33
2019-01-25T15:12:21.706Z,41.40
2019-01-25T15:17:26.770Z,41.20
2019-01-25T15:22:31.787Z,37.77
2019-01-25T15:27:37.031Z,37.23
2019-01-25T15:32:42.038Z,35.57
2019-01-25T15:37:47.034Z,34.73
2019-01-25T15:42:52.207Z,34.70
2019-01-25T15:47:57.191Z,33.73
2019-01-25T15:53:02.191Z,33.47
2019-01-25T15:58:07.194Z,35.53
2019-01-25T16:03:12.171Z,35.70
2019-01-25T16:08:17.179Z,32.60
2019-01-25T16:13:22.223Z,33.00
2019-01-25T16:18:27.191Z,34.53
2019-01-25T16:23:32.170Z,34.80
2019-01-25T16:28:37.159Z,36.13
2019-01-25T16:33:43.348Z,36.40
2019-01-25T16:38:48.387Z,33.67
2019-01-25T16:43:53.384Z,35.80
2019-01-25T16:48:58.497Z,34.63
2019-01-25T16:54:03.467Z,35.53
2019-01-25T16:59:08.633Z,38.33
2019-01-25T17:04:13.646Z,38.47
2019-01-25T17:09:18.617Z,38.63
2019-01-25T17:14:23.632Z,42.70
2019-01-25T17:19:28.637Z,39.97
2019-01-25T17:24:33.795Z,40.90
2019-01-25T17:29:38.763Z,42.57
2019-01-25T17:34:43.739Z,46.83
2019-01-25T17:39:49.019Z,49.77
2019-01-25T17:44:54.024Z,50.43
2019-01-25T17:49:59.143Z,46.27
2019-01-25T17:55:04.931Z,43.33
2019-01-25T18:00:14.556Z,38.53
2019-01-25T18:05:19.530Z,36.33
2019-01-25T18:10:24.955Z,34.93
2019-01-25T18:15:29.955Z,32.60
2019-01-25T18:20:34.939Z,31.00
2019-01-25T18:25:55.535Z,30.03
2019-01-25T18:31:11.031Z,31.67
2019-01-25T18:36:16.017Z,69.33
2019-01-25T18:41:21.049Z,34.80
2019-01-25T18:46:26.045Z,34.57
2019-01-25T18:51:31.050Z,41.30
2019-01-25T18:56:36.630Z,38.33
2019-01-25T19:01:43.196Z,36.03
2019-01-25T19:06:48.176Z,38.60
2019-01-25T19:11:53.406Z,40.43
2019-01-25T19:16:58.409Z,50.20
2019-01-25T19:22:03.795Z,52.20
2019-01-25T19:27:09.083Z,51.77
2019-01-25T19:32:15.104Z,47.00
2019-01-25T19:37:20.074Z,47.20
2019-01-25T19:42:25.056Z,53.83
2019-01-25T19:47:30.119Z,62.33
2019-01-25T19:52:35.163Z,69.43
2019-01-25T19:57:40.496Z,76.97
2019-01-25T20:02:46.094Z,94.53
2019-01-25T20:07:51.078Z,102.87
2019-01-25T20:12:56.383Z,98.00
2019-01-25T20:18:01.702Z,82.80
2019-01-25T20:23:06.802Z,85.73
2019-01-25T20:28:12.289Z,114.00
2019-01-25T20:33:17.292Z,81.40
2019-01-25T20:38:22.247Z,87.33
2019-01-25T20:43:27.227Z,70.50
2019-01-25T20:48:32.204Z,84.67
2019-01-25T20:53:37.657Z,66.40
2019-01-25T20:58:42.607Z,68.30
2019-01-25T21:03:47.606Z,68.70
2019-01-25T21:08:52.582Z,79.50
2019-01-25T21:13:57.595Z,58.27
2019-01-25T21:19:02.615Z,56.07
2019-01-25T21:24:07.611Z,53.37
2019-01-25T21:29:12.648Z,53.03
2019-01-25T21:34:17.607Z,50.33
2019-01-25T21:39:22.599Z,71.93
2019-01-25T21:44:27.560Z,69.83
2019-01-25T21:49:32.830Z,39.33
2019-01-25T21:54:37.891Z,33.03
2019-01-25T21:59:42.899Z,35.80
2019-01-25T22:04:47.882Z,33.67
2019-01-25T22:09:52.879Z,30.83
2019-01-25T22:14:57.902Z,31.27
2019-01-25T22:20:02.898Z,30.37
2019-01-25T22:25:08.844Z,32.43
2019-01-25T22:30:16.162Z,33.50
2019-01-25T22:35:21.550Z,29.00
2019-01-25T22:40:28.465Z,29.67
2019-01-25T22:45:33.541Z,30.77
2019-01-25T22:50:38.768Z,27.63
2019-01-25T22:55:43.762Z,41.03
2019-01-25T23:01:11.988Z,28.80
2019-01-25T23:06:35.536Z,33.60
2019-01-25T23:11:42.538Z,34.23
2019-01-25T23:16:47.586Z,33.47
2019-01-25T23:21:52.565Z,43.77
2019-01-25T23:26:57.708Z,37.43
2019-01-25T23:32:02.691Z,43.57
2019-01-25T23:37:09.261Z,38.73
2019-01-25T23:42:25.066Z,42.50
2019-01-25T23:47:34.053Z,41.83
2019-01-25T23:52:41.421Z,44.67
2019-01-25T23:57:47.219Z,44.20
